Time;durP1;ratioP1;P1;durP2;ratioP2;P2;SDS_P1;SDS_P2;PMS_P1;PMS_P2;Temp;Humidity;BMP_temperature;BMP_pressure;BME280_temperature;BME280_humidity;BME280_pressure;Samples;Min_cycle;Max_cycle;Signal;HPM_P1;HPM_P2
2022/09/14 00:00:29;;;;;;;9.30;3.03;;;;;;;11.93;100.00;100335.19;7428203;19;20926;-59
2022/09/14 00:02:59;;;;;;;60.07;29.10;;;;;;;11.88;100.00;100335.06;7418809;19;20416;-60
2022/09/14 00:05:28;;;;;;;4.43;1.50;;;;;;;11.74;100.00;100332.94;7424562;19;20480;-58
2022/09/14 00:08:00;;;;;;;9.13;1.97;;;;;;;11.67;100.00;100333.59;7423787;19;20444;-53
2022/09/14 00:10:30;;;;;;;5.60;1.60;;;;;;;11.62;100.00;100329.97;7427829;19;20421;-57
2022/09/14 00:12:59;;;;;;;7.53;2.17;;;;;;;11.60;100.00;100329.06;7424627;19;20451;-55
2022/09/14 00:15:29;;;;;;;4.53;1.30;;;;;;;11.56;100.00;100324.63;7424499;19;20412;-56
2022/09/14 00:17:58;;;;;;;18.87;2.33;;;;;;;11.54;100.00;100315.97;7423087;19;20402;-56
2022/09/14 00:20:27;;;;;;;10.00;2.33;;;;;;;11.50;100.00;100303.78;7427712;19;20385;-53
2022/09/14 00:22:57;;;;;;;11.97;2.70;;;;;;;11.54;100.00;100300.47;7422712;19;20419;-54
2022/09/14 00:25:29;;;;;;;10.50;1.80;;;;;;;11.48;100.00;100303.72;7423809;19;20451;-56
2022/09/14 00:27:59;;;;;;;10.83;1.87;;;;;;;11.46;100.00;100303.69;7422656;19;20407;-56
2022/09/14 00:30:29;;;;;;;10.70;2.27;;;;;;;11.44;100.00;100299.31;7427317;19;20381;-59
2022/09/14 00:32:58;;;;;;;6.50;1.87;;;;;;;11.39;100.00;100281.06;7423272;19;20411;-50
2022/09/14 00:35:28;;;;;;;7.40;3.00;;;;;;;11.44;100.00;100279.50;7409502;19;20417;-55
2022/09/14 00:37:57;;;;;;;8.77;2.07;;;;;;;11.41;100.00;100279.41;7393691;19;20826;-55
2022/09/14 00:40:29;;;;;;;8.93;2.03;;;;;;;11.39;100.00;100275.88;7402710;19;20396;-50
2022/09/14 00:42:58;;;;;;;7.33;3.07;;;;;;;11.35;100.00;100280.09;7393479;19;20409;-55
2022/09/14 00:45:29;;;;;;;8.87;1.73;;;;;;;11.36;100.00;100270.66;7394838;19;20427;-56
2022/09/14 00:47:58;;;;;;;7.63;1.83;;;;;;;11.30;100.00;100279.09;7388326;19;21055;-58
2022/09/14 00:50:28;;;;;;;8.33;2.77;;;;;;;11.31;100.00;100272.22;7398109;19;20415;-55
2022/09/14 00:52:58;;;;;;;6.10;2.37;;;;;;;11.31;100.00;100272.22;7393016;19;20437;-54
2022/09/14 00:55:30;;;;;;;6.70;2.03;;;;;;;11.25;100.00;100266.84;7394671;19;20944;-58
2022/09/14 00:57:59;;;;;;;11.90;2.57;;;;;;;11.17;100.00;100267.50;7394096;19;20454;-53
2022/09/14 01:00:31;;;;;;;27.87;14.23;;;;;;;11.20;100.00;100265.03;7397821;19;20405;-57
2022/09/14 01:03:01;;;;;;;12.57;2.90;;;;;;;11.12;100.00;100266.47;7393466;19;20417;-52
2022/09/14 01:05:39;;;;;;;12.10;2.20;;;;;;;11.05;100.00;100264.53;7394890;19;20425;-61
2022/09/14 01:08:23;;;;;;;6.07;1.90;;;;;;;10.97;100.00;100272.00;7393074;19;20423;-54
2022/09/14 01:11:07;;;;;;;10.60;2.13;;;;;;;10.98;100.00;100278.06;7397579;19;20381;-60
2022/09/14 01:13:42;;;;;;;6.40;1.90;;;;;;;11.00;100.00;100273.81;7395428;19;20407;-57
2022/09/14 01:16:18;;;;;;;8.30;1.80;;;;;;;10.95;100.00;100278.84;7392955;19;20377;-60
2022/09/14 01:18:50;;;;;;;6.00;2.13;;;;;;;10.94;100.00;100274.50;7396960;19;20380;-55
2022/09/14 01:21:22;;;;;;;9.80;2.37;;;;;;;10.87;100.00;100281.16;7393012;19;20978;-55
2022/09/14 01:23:58;;;;;;;7.40;2.40;;;;;;;10.86;100.00;100284.56;7394930;19;20418;-52
2022/09/14 01:26:43;;;;;;;9.43;2.03;;;;;;;10.88;100.00;100282.03;7395874;19;20415;-58
2022/09/14 01:29:18;;;;;;;9.37;2.40;;;;;;;10.88;100.00;100282.91;7398695;19;20426;-56
2022/09/14 01:31:51;;;;;;;26.80;12.00;;;;;;;10.94;100.00;100285.69;7382473;19;20427;-56
2022/09/14 01:34:27;;;;;;;14.80;2.87;;;;;;;10.90;100.00;100294.19;7394599;19;20421;-55
2022/09/14 01:37:00;;;;;;;7.30;2.10;;;;;;;10.85;100.00;100295.72;7394698;19;20470;-53
2022/09/14 01:39:31;;;;;;;6.57;2.30;;;;;;;10.82;100.00;100298.19;7400302;19;20438;-57
2022/09/14 01:42:01;;;;;;;13.53;2.67;;;;;;;10.76;100.00;100297.97;7391719;19;20431;-57
2022/09/14 01:44:36;;;;;;;18.50;5.20;;;;;;;10.71;100.00;100300.41;7394558;19;20952;-54
2022/09/14 01:47:12;;;;;;;10.97;3.07;;;;;;;10.77;100.00;100295.47;7386315;19;20771;-55
2022/09/14 01:49:46;;;;;;;16.60;4.07;;;;;;;10.78;100.00;100296.34;7395769;19;20909;-55
2022/09/14 01:52:19;;;;;;;9.43;2.70;;;;;;;10.79;100.00;100292.94;7391000;19;20423;-55
2022/09/14 01:54:51;;;;;;;11.53;2.70;;;;;;;10.76;100.00;100293.72;7393972;19;20411;-54
2022/09/14 01:57:25;;;;;;;9.00;2.50;;;;;;;10.80;100.00;100294.69;7391363;19;20788;-55
2022/09/14 02:00:01;;;;;;;7.43;2.80;;;;;;;10.79;100.00;100287.78;7395635;19;20388;-56
2022/09/14 02:02:32;;;;;;;9.93;2.10;;;;;;;10.80;100.00;100294.69;7390282;19;20445;-58
2022/09/14 02:05:05;;;;;;;10.33;2.97;;;;;;;10.85;100.00;100300.00;7393773;19;20447;-57
2022/09/14 02:07:35;;;;;;;14.33;2.13;;;;;;;10.80;100.00;100299.84;7390468;19;20426;-56
2022/09/14 02:10:08;;;;;;;10.47;2.57;;;;;;;10.74;100.00;100299.66;7395722;19;20391;-53
2022/09/14 02:12:37;;;;;;;7.30;2.30;;;;;;;10.70;100.00;100295.19;7390858;19;20784;-57
2022/09/14 02:15:12;;;;;;;12.23;2.90;;;;;;;10.71;100.00;100299.56;7393868;19;20404;-59
2022/09/14 02:17:41;;;;;;;14.80;2.80;;;;;;;10.69;100.00;100301.19;7390452;19;20403;-55
2022/09/14 02:20:16;;;;;;;8.07;2.53;;;;;;;10.65;100.00;100301.09;7395370;19;20417;-54
2022/09/14 02:22:46;;;;;;;5.93;2.20;;;;;;;10.62;100.00;100306.13;7390186;19;20970;-60
2022/09/14 02:25:15;;;;;;;16.90;3.00;;;;;;;10.62;100.00;100300.97;7392549;19;20783;-52
2022/09/14 02:27:46;;;;;;;10.57;2.67;;;;;;;10.63;100.00;100302.75;7390365;19;20436;-54
2022/09/14 02:30:19;;;;;;;9.93;2.37;;;;;;;10.61;100.00;100300.94;7395202;19;20385;-55
2022/09/14 02:32:57;;;;;;;13.90;3.00;;;;;;;10.58;100.00;100303.41;7390734;19;20799;-51
2022/09/14 02:35:30;;;;;;;8.47;2.50;;;;;;;10.58;100.00;100300.81;7392710;19;20417;-55
2022/09/14 02:38:03;;;;;;;11.23;2.90;;;;;;;10.55;100.00;100304.16;7389329;19;20941;-52
2022/09/14 02:40:36;;;;;;;12.63;2.50;;;;;;;10.60;100.00;100296.59;7394937;19;20406;-52
2022/09/14 02:43:14;;;;;;;10.40;2.50;;;;;;;10.62;100.00;100300.13;7392841;19;20438;-58
2022/09/14 02:45:53;;;;;;;17.67;3.00;;;;;;;10.62;100.00;100300.97;7392012;19;20423;-58
2022/09/14 02:48:29;;;;;;;8.83;3.00;;;;;;;10.63;100.00;100296.72;7389290;19;20410;-58
2022/09/14 02:51:02;;;;;;;14.57;2.90;;;;;;;10.59;100.00;100295.72;7394483;19;20506;-49
2022/09/14 02:53:36;;;;;;;10.07;2.40;;;;;;;10.58;100.00;100301.72;7389014;19;20850;-55
2022/09/14 02:56:08;;;;;;;9.10;2.77;;;;;;;10.56;100.00;100297.31;7394384;19;20388;-52
2022/09/14 02:58:38;;;;;;;8.80;2.63;;;;;;;10.58;100.00;100296.56;7393083;19;20425;-52
2022/09/14 03:01:13;;;;;;;4.47;1.90;;;;;;;10.57;100.00;100294.81;7387441;19;20396;-57
2022/09/14 03:03:42;;;;;;;8.13;2.20;;;;;;;10.56;100.00;100295.59;7392065;19;20937;-57
2022/09/14 03:06:12;;;;;;;13.20;2.60;;;;;;;10.54;100.00;100302.41;7387931;19;20384;-55
2022/09/14 03:08:43;;;;;;;8.27;2.20;;;;;;;10.54;100.00;100294.69;7393332;19;20726;-55
2022/09/14 03:11:12;;;;;;;6.83;1.80;;;;;;;10.51;100.00;100303.19;7389476;19;20467;-56
2022/09/14 03:13:43;;;;;;;9.90;2.13;;;;;;;10.50;100.00;100306.59;7391892;19;20426;-59
2022/09/14 03:16:17;;;;;;;10.33;3.10;;;;;;;10.48;100.00;100303.09;7389809;19;20384;-52
2022/09/14 03:18:47;;;;;;;9.47;2.07;;;;;;;10.47;100.00;100306.47;7396464;19;20734;-57
2022/09/14 03:21:18;;;;;;;15.87;2.40;;;;;;;10.48;100.00;100300.53;7389004;19;20384;-57
2022/09/14 03:23:50;;;;;;;7.10;2.73;;;;;;;10.48;100.00;100302.22;7391453;19;20395;-57
2022/09/14 03:26:20;;;;;;;11.07;2.50;;;;;;;10.47;100.00;100297.88;7388252;19;20396;-55
2022/09/14 03:28:52;;;;;;;11.03;2.30;;;;;;;10.45;100.00;100292.66;7393048;19;20392;-50
2022/09/14 03:31:25;;;;;;;14.17;4.70;;;;;;;10.45;100.00;100297.81;7389457;19;20402;-57
2022/09/14 03:33:55;;;;;;;15.60;5.30;;;;;;;10.44;100.00;100290.91;7391856;19;20415;-59
2022/09/14 03:36:26;;;;;;;5.93;3.00;;;;;;;10.38;100.00;100296.72;7391828;19;20387;-58
2022/09/14 03:38:58;;;;;;;7.00;2.60;;;;;;;10.37;100.00;100278.59;7395896;19;20396;-56
2022/09/14 03:41:28;;;;;;;15.63;3.63;;;;;;;10.53;100.00;100277.47;7388194;19;20423;-54
2022/09/14 03:43:57;;;;;;;9.83;4.80;;;;;;;10.46;100.00;100272.91;7391265;19;20465;-58
2022/09/14 03:46:29;;;;;;;13.47;2.80;;;;;;;10.43;100.00;100263.38;7386699;19;20463;-57
2022/09/14 03:48:59;;;;;;;14.20;2.93;;;;;;;10.38;100.00;100263.19;7392924;19;20460;-54
2022/09/14 03:51:28;;;;;;;8.10;2.60;;;;;;;10.38;100.00;100265.75;7387967;19;20435;-56
2022/09/14 03:53:58;;;;;;;11.70;2.57;;;;;;;10.36;100.00;100256.22;7391201;19;20424;-56
2022/09/14 03:56:27;;;;;;;14.93;3.20;;;;;;;10.37;100.00;100256.25;7388828;19;20426;-49
2022/09/14 03:58:56;;;;;;;7.97;2.63;;;;;;;10.31;100.00;100258.59;7392489;19;20387;-56
2022/09/14 04:01:26;;;;;;;4.50;2.43;;;;;;;10.27;100.00;100262.78;7387840;19;20411;-55
2022/09/14 04:03:58;;;;;;;9.50;2.40;;;;;;;10.28;100.00;100263.69;7390905;19;21218;-55
2022/09/14 04:06:27;;;;;;;10.33;2.90;;;;;;;10.27;100.00;100254.19;7387632;19;25464;-59
2022/09/14 04:08:58;;;;;;;16.93;3.10;;;;;;;10.28;100.00;100255.94;7392566;19;20403;-50
2022/09/14 04:11:30;;;;;;;10.40;2.90;;;;;;;10.33;100.00;100262.16;7393222;19;20427;-52
2022/09/14 04:14:02;;;;;;;8.60;3.37;;;;;;;10.34;100.00;100256.16;7398005;19;20408;-55
2022/09/14 04:16:32;;;;;;;14.10;2.40;;;;;;;10.39;100.00;100251.16;7395183;19;20400;-55
2022/09/14 04:19:05;;;;;;;11.30;4.03;;;;;;;10.42;100.00;100252.97;7399422;19;20859;-54
2022/09/14 04:21:34;;;;;;;12.37;2.83;;;;;;;10.42;100.00;100255.53;7394867;19;20766;-56
2022/09/14 04:24:04;;;;;;;12.53;3.23;;;;;;;10.40;100.00;100252.91;7397226;19;20402;-51
2022/09/14 04:26:51;;;;;;;5.30;2.33;;;;;;;10.43;100.00;100257.31;7393385;19;20418;-56
2022/09/14 04:29:20;;;;;;;11.80;3.17;;;;;;;10.48;100.00;100250.63;7399264;19;20380;-54
2022/09/14 04:31:50;;;;;;;13.07;2.70;;;;;;;10.49;100.00;100252.38;7394436;19;20407;-59
2022/09/14 04:34:22;;;;;;;13.03;2.80;;;;;;;10.58;100.00;100252.69;7396964;19;20419;-53
2022/09/14 04:36:51;;;;;;;6.33;2.60;;;;;;;10.56;100.00;100259.50;7394381;19;20415;-57
2022/09/14 04:39:21;;;;;;;12.37;3.07;;;;;;;10.57;100.00;100271.59;7398888;19;20388;-58
2022/09/14 04:41:50;;;;;;;8.33;2.53;;;;;;;10.58;100.00;100272.44;7393509;19;20411;-55
2022/09/14 04:44:20;;;;;;;5.70;2.37;;;;;;;10.62;100.00;100280.34;7396767;19;20439;-59
2022/09/14 04:46:49;;;;;;;7.73;3.00;;;;;;;10.67;100.00;100278.78;7392542;19;20433;-60
2022/09/14 04:49:21;;;;;;;12.93;2.83;;;;;;;10.69;100.00;100286.59;7398266;19;20392;-54
2022/09/14 04:51:52;;;;;;;9.53;2.60;;;;;;;10.72;100.00;100281.53;7396532;19;20411;-62
2022/09/14 04:54:21;;;;;;;11.47;2.80;;;;;;;10.74;100.00;100282.47;7396590;19;20423;-56
2022/09/14 04:56:50;;;;;;;12.37;3.03;;;;;;;10.77;100.00;100286.84;7393559;19;20411;-58
2022/09/14 04:59:20;;;;;;;4.80;2.53;;;;;;;10.77;100.00;100290.31;7398146;19;20414;-53
2022/09/14 05:01:49;;;;;;;5.97;2.23;;;;;;;10.79;100.00;100295.53;7393684;19;20423;-56
2022/09/14 05:04:22;;;;;;;10.97;2.90;;;;;;;10.82;100.00;100300.78;7396374;19;20431;-58
2022/09/14 05:06:51;;;;;;;5.30;2.40;;;;;;;10.87;100.00;100300.94;7392911;19;20407;-58
2022/09/14 05:09:21;;;;;;;6.50;2.70;;;;;;;10.87;100.00;100291.47;7399094;19;20388;-54
2022/09/14 05:11:51;;;;;;;8.37;2.37;;;;;;;10.90;100.00;100290.72;7392582;19;20407;-54
2022/09/14 05:14:21;;;;;;;12.30;2.17;;;;;;;10.94;100.00;100298.59;7395532;19;20411;-56
2022/09/14 05:16:50;;;;;;;13.80;2.67;;;;;;;10.97;100.00;100304.72;7392275;19;20426;-58
2022/09/14 05:19:22;;;;;;;10.70;3.03;;;;;;;11.00;100.00;100297.03;7397399;19;20774;-56
2022/09/14 05:21:52;;;;;;;8.57;2.80;;;;;;;11.01;100.00;100299.69;7392331;19;20782;-62
2022/09/14 05:24:21;;;;;;;13.77;2.70;;;;;;;11.08;100.00;100300.78;7395448;19;20768;-56
2022/09/14 05:26:53;;;;;;;9.87;2.70;;;;;;;11.13;100.00;100304.34;7392513;19;20438;-57
2022/09/14 05:29:28;;;;;;;9.03;2.57;;;;;;;11.17;100.00;100303.63;7397386;19;20408;-52
2022/09/14 05:31:58;;;;;;;5.17;2.43;;;;;;;11.25;100.00;100300.41;7392084;19;20437;-58
2022/09/14 05:34:30;;;;;;;7.30;2.40;;;;;;;11.26;100.00;100303.06;7395015;19;20446;-56
2022/09/14 05:36:59;;;;;;;7.03;2.53;;;;;;;11.30;100.00;100306.63;7392194;19;20415;-60
2022/09/14 05:39:29;;;;;;;7.70;2.37;;;;;;;11.30;100.00;100309.19;7396773;19;20384;-54
2022/09/14 05:41:58;;;;;;;6.73;2.77;;;;;;;11.30;100.00;100314.34;7391318;19;20455;-59
2022/09/14 05:44:27;;;;;;;11.63;3.50;;;;;;;11.31;100.00;100318.69;7398663;19;20428;-57
2022/09/14 05:46:57;;;;;;;5.67;2.40;;;;;;;11.31;100.00;100323.84;7389609;19;20444;-59
2022/09/14 05:49:26;;;;;;;14.80;3.90;;;;;;;11.38;100.00;100323.22;7396248;19;20500;-56
2022/09/14 05:51:58;;;;;;;6.37;2.50;;;;;;;11.40;100.00;100326.75;7391246;19;20938;-61
2022/09/14 05:54:28;;;;;;;9.00;5.00;;;;;;;11.47;100.00;100320.03;7394230;19;20408;-56
2022/09/14 05:56:57;;;;;;;13.00;4.67;;;;;;;11.49;100.00;100323.56;7391297;19;20419;-60
2022/09/14 05:59:30;;;;;;;6.70;2.70;;;;;;;11.53;100.00;100329.72;7396025;19;20392;-58
2022/09/14 06:02:00;;;;;;;13.30;3.50;;;;;;;11.56;100.00;100324.63;7391032;19;20408;-56
2022/09/14 06:04:30;;;;;;;8.10;2.90;;;;;;;11.60;100.00;100327.34;7394270;19;20415;-59
2022/09/14 06:07:01;;;;;;;10.03;3.10;;;;;;;11.65;100.00;100340.44;7390154;19;20805;-58
2022/09/14 06:09:47;;;;;;;5.50;2.50;;;;;;;11.70;100.00;100333.66;7395683;19;20396;-54
2022/09/14 06:12:16;;;;;;;11.43;2.77;;;;;;;11.78;100.00;100322.72;7390845;19;20773;-62
2022/09/14 06:14:46;;;;;;;7.70;2.00;;;;;;;11.83;100.00;100328.88;7393844;19;20430;-56
2022/09/14 06:17:15;;;;;;;7.40;2.50;;;;;;;11.91;100.00;100332.59;7390797;19;20421;-56
2022/09/14 06:19:44;;;;;;;8.57;3.00;;;;;;;12.00;100.00;100338.00;7394920;19;20397;-56
2022/09/14 06:22:16;;;;;;;12.57;3.00;;;;;;;12.07;100.00;100339.09;7390603;19;20422;-55
2022/09/14 06:24:46;;;;;;;9.70;3.50;;;;;;;12.16;100.00;100338.50;7392934;19;20424;-54
2022/09/14 06:27:15;;;;;;;10.90;2.83;;;;;;;12.19;100.00;100330.81;7389900;19;20822;-59
2022/09/14 06:29:50;;;;;;;11.50;2.80;;;;;;;12.22;100.00;100346.44;7394692;19;20381;-61
2022/09/14 06:32:22;;;;;;;20.23;4.70;;;;;;;12.33;100.00;100345.84;7390325;19;20742;-57
2022/09/14 06:34:51;;;;;;;8.13;2.43;;;;;;;12.34;100.00;100352.75;7392597;19;20415;-54
2022/09/14 06:37:23;;;;;;;5.37;2.23;;;;;;;12.36;100.00;100361.47;7390056;19;20967;-54
2022/09/14 06:39:52;;;;;;;10.90;2.30;;;;;;;12.39;100.00;100361.53;7394445;19;20402;-58
2022/09/14 06:42:22;;;;;;;7.97;2.63;;;;;;;12.45;100.00;100366.88;7389572;19;20485;-61
2022/09/14 06:44:52;;;;;;;6.37;2.33;;;;;;;12.47;100.00;100352.28;7392568;19;20411;-59
2022/09/14 06:47:22;;;;;;;9.40;2.50;;;;;;;12.48;100.00;100364.38;7388129;19;20526;-59
2022/09/14 06:49:52;;;;;;;8.10;2.23;;;;;;;12.55;100.00;100352.47;7393922;19;20389;-55
2022/09/14 06:52:24;;;;;;;12.90;3.27;;;;;;;12.62;100.00;100354.41;7392076;19;20444;-61
2022/09/14 06:54:53;;;;;;;11.80;1.97;;;;;;;12.61;100.00;100362.13;7392568;19;20418;-56
2022/09/14 06:57:22;;;;;;;6.63;1.67;;;;;;;12.67;100.00;100357.13;7389784;19;20425;-55
2022/09/14 06:59:52;;;;;;;11.50;2.37;;;;;;;12.72;100.00;100365.88;7393858;19;20395;-58
2022/09/14 07:02:21;;;;;;;10.10;3.73;;;;;;;12.81;100.00;100360.94;7388144;19;20411;-52
2022/09/14 07:04:51;;;;;;;8.50;2.50;;;;;;;12.86;100.00;100363.66;7392175;19;20439;-53
2022/09/14 07:07:21;;;;;;;9.50;2.23;;;;;;;12.89;100.00;100363.75;7388815;19;20452;-61
2022/09/14 07:09:52;;;;;;;7.23;2.37;;;;;;;12.92;100.00;100363.81;7393986;19;20391;-51
2022/09/14 07:12:22;;;;;;;6.50;2.50;;;;;;;13.03;100.00;100361.50;7389645;19;20414;-55
2022/09/14 07:14:51;;;;;;;9.00;2.70;;;;;;;13.17;100.00;100369.63;7391768;19;20424;-59
2022/09/14 07:17:21;;;;;;;9.30;2.20;;;;;;;13.26;100.00;100374.16;7388937;19;20430;-55
2022/09/14 07:19:50;;;;;;;8.90;1.90;;;;;;;13.34;100.00;100375.19;7393426;19;20786;-54
2022/09/14 07:22:19;;;;;;;9.63;2.20;;;;;;;13.58;100.00;100387.03;7388298;19;20444;-53
2022/09/14 07:24:49;;;;;;;9.60;2.50;;;;;;;13.62;100.00;100386.28;7391468;19;20418;-52
2022/09/14 07:27:21;;;;;;;10.53;2.50;;;;;;;13.73;100.00;100370.06;7388707;19;20416;-54
2022/09/14 07:29:50;;;;;;;6.87;2.20;;;;;;;13.66;100.00;100374.25;7393165;19;20387;-49
2022/09/14 07:32:20;;;;;;;9.30;2.47;;;;;;;13.75;100.00;100374.47;7388397;19;20408;-54
2022/09/14 07:34:49;;;;;;;8.97;3.47;;;;;;;13.86;100.00;100366.94;7391601;19;20412;-51
2022/09/14 07:37:18;;;;;;;9.60;2.30;;;;;;;13.98;100.00;100365.44;7389665;19;20452;-58
2022/09/14 07:39:48;;;;;;;3.73;1.67;;;;;;;14.08;100.00;100371.69;7392777;19;20711;-53
2022/09/14 07:42:17;;;;;;;5.90;1.63;;;;;;;14.17;100.00;100370.16;7387894;19;20420;-54
2022/09/14 07:44:49;;;;;;;8.63;2.30;;;;;;;14.27;100.00;100383.34;7391207;19;20414;-53
2022/09/14 07:47:19;;;;;;;6.83;2.00;;;;;;;14.35;100.00;100386.09;7394375;19;20432;-58
2022/09/14 07:49:48;;;;;;;10.50;1.97;;;;;;;14.47;100.00;100385.47;7400239;19;20425;-54
2022/09/14 07:52:17;;;;;;;6.50;1.90;;;;;;;14.49;100.00;100384.66;7395433;19;20975;-51
2022/09/14 07:54:47;;;;;;;5.73;1.90;;;;;;;14.56;100.00;100396.91;7397469;19;20423;-54
2022/09/14 07:57:16;;;;;;;6.53;2.00;;;;;;;14.70;100.00;100386.78;7395799;19;20994;-51
2022/09/14 07:59:48;;;;;;;12.03;3.33;;;;;;;14.90;100.00;100383.72;7399481;19;20396;-60
2022/09/14 08:02:18;;;;;;;11.17;3.60;;;;;;;15.04;100.00;100380.47;7394627;19;20407;-55
2022/09/14 08:04:47;;;;;;;5.23;2.00;;;;;;;14.88;100.00;100384.53;7398055;19;20741;-59
2022/09/14 08:07:16;;;;;;;9.00;2.30;;;;;;;14.99;100.00;100381.25;7394500;19;20438;-53
2022/09/14 08:09:47;;;;;;;6.83;2.37;;;;;;;15.10;100.00;100372.78;7396849;19;20390;-59
2022/09/14 08:12:17;;;;;;;9.40;1.70;;;;;;;15.07;100.00;100377.94;7394901;19;20403;-53
2022/09/14 08:14:50;;;;;;;5.10;1.50;;;;;;;15.20;100.00;100384.22;7396936;19;20435;-56
2022/09/14 08:17:20;;;;;;;12.93;4.30;;;;;;;15.33;100.00;100378.38;7395153;19;20408;-55
2022/09/14 08:19:50;;;;;;;7.87;1.33;;;;;;;15.36;100.00;100390.53;7399348;19;20377;-58
2022/09/14 08:22:19;;;;;;;9.63;1.97;;;;;;;15.34;100.00;100394.84;7394380;19;20416;-49
2022/09/14 08:24:49;;;;;;;7.43;2.07;;;;;;;15.35;100.00;100394.00;7396287;19;20414;-58
2022/09/14 08:27:18;;;;;;;9.77;1.73;;;;;;;15.36;100.00;100395.72;7393988;19;20438;-57
2022/09/14 08:29:50;;;;;;;5.70;1.73;;;;;;;15.42;100.00;100395.84;7396454;19;20383;-56
2022/09/14 08:32:19;;;;;;;9.53;1.60;;;;;;;15.42;100.00;100410.56;7393945;19;20408;-57
2022/09/14 08:34:51;;;;;;;7.17;1.73;;;;;;;15.50;100.00;100412.41;7396498;19;20409;-64
2022/09/14 08:37:20;;;;;;;6.00;1.30;;;;;;;15.49;100.00;100420.22;7393927;19;20410;-56
2022/09/14 08:39:50;;;;;;;11.10;2.37;;;;;;;15.47;100.00;100422.78;7398718;19;20401;-57
2022/09/14 08:42:23;;;;;;;6.50;1.70;;;;;;;15.69;100.00;100407.50;7393458;19;20416;-57
2022/09/14 08:44:59;;;;;;;5.50;3.33;;;;;;;15.83;100.00;100412.06;7394067;19;20831;-57
2022/09/14 08:47:31;;;;;;;76.37;41.23;;;;;;;15.90;100.00;100411.28;7395382;19;20479;-56
2022/09/14 08:50:04;;;;;;;101.40;50.97;;;;;;;15.99;100.00;100419.25;7398252;19;20393;-58
2022/09/14 08:52:36;;;;;;;26.67;13.60;;;;;;;15.93;100.00;100427.84;7393726;19;20424;-57
2022/09/14 08:55:19;;;;;;;14.93;7.53;;;;;;;15.84;100.00;100429.41;7398842;19;20442;-53
2022/09/14 08:57:50;;;;;;;37.57;18.87;;;;;;;15.83;100.00;100423.31;7392480;19;20422;-56
2022/09/14 09:00:24;;;;;;;72.20;34.23;;;;;;;15.72;100.00;100420.56;7397831;19;20939;-53
2022/09/14 09:03:19;;;;;;;27.37;12.03;;;;;;;15.73;100.00;100422.31;7396358;19;20449;-59
2022/09/14 09:05:53;;;;;;;7.50;2.40;;;;;;;15.97;100.00;100412.28;7395547;19;20901;-56
2022/09/14 09:08:28;;;;;;;41.20;16.07;;;;;;;16.21;100.00;100398.75;7392275;19;20424;-58
2022/09/14 09:11:00;;;;;;;14.50;3.57;;;;;;;16.18;100.00;100425.59;7400018;19;20386;-56
2022/09/14 09:13:33;;;;;;;12.17;1.97;;;;;;;16.02;100.00;100440.13;7392052;19;20410;-57
2022/09/14 09:16:08;;;;;;;13.90;3.50;;;;;;;16.34;100.00;100428.38;7397142;19;20385;-53
2022/09/14 09:18:41;;;;;;;47.87;26.07;;;;;;;16.31;100.00;100425.75;7396561;19;20410;-60
2022/09/14 09:21:15;;;;;;;31.97;13.43;;;;;;;16.18;100.00;100430.78;7392191;19;20386;-54
2022/09/14 09:23:45;;;;;;;33.67;17.07;;;;;;;16.18;100.00;100437.72;7395384;19;20422;-53
2022/09/14 09:26:18;;;;;;;10.40;3.50;;;;;;;16.23;100.00;100441.25;7392354;19;20409;-57
2022/09/14 09:28:50;;;;;;;12.53;4.43;;;;;;;16.27;100.00;100435.25;7395879;19;20398;-53
2022/09/14 09:31:32;;;;;;;27.30;11.70;;;;;;;16.28;100.00;100425.69;7392481;19;20386;-54
2022/09/14 09:34:02;;;;;;;10.23;3.07;;;;;;;16.17;100.00;100416.03;7395104;19;20418;-57
2022/09/14 09:36:36;;;;;;;8.70;2.07;;;;;;;16.16;100.00;100405.59;7392365;19;20390;-56
2022/09/14 09:39:06;;;;;;;6.97;2.60;;;;;;;15.96;100.00;100414.03;7398120;19;20410;-58
2022/09/14 09:41:45;;;;;;;14.53;2.70;;;;;;;16.12;100.00;100406.41;7392411;19;21054;-57
2022/09/14 09:44:14;;;;;;;10.77;3.70;;;;;;;16.09;100.00;100419.41;7394900;19;20757;-58
2022/09/14 09:46:51;;;;;;;22.33;11.60;;;;;;;16.08;100.00;100425.44;7389663;19;20405;-54
2022/09/14 09:49:23;;;;;;;21.57;5.70;;;;;;;16.10;100.00;100415.94;7395396;19;20394;-57
2022/09/14 09:51:53;;;;;;;11.40;3.30;;;;;;;16.22;100.00;100407.41;7391022;19;20411;-54
2022/09/14 09:54:29;;;;;;;11.83;3.93;;;;;;;16.31;100.00;100404.94;7397649;19;20460;-56
2022/09/14 09:57:00;;;;;;;172.70;58.27;;;;;;;16.39;100.00;100392.88;7391308;19;20402;-60
2022/09/14 09:59:34;;;;;;;10.20;3.63;;;;;;;16.46;100.00;100399.03;7395793;19;20913;-56
2022/09/14 10:02:25;;;;;;;21.50;6.30;;;;;;;16.56;100.00;100390.47;7390836;19;20415;-59
2022/09/14 10:05:00;;;;;;;20.20;9.30;;;;;;;16.62;100.00;100399.19;7393829;19;20411;-56
2022/09/14 10:07:30;;;;;;;42.93;20.47;;;;;;;16.45;100.00;100397.25;7389583;19;20402;-58
2022/09/14 10:10:02;;;;;;;16.43;5.03;;;;;;;16.15;100.00;100398.66;7394171;19;20754;-54
2022/09/14 10:12:32;;;;;;;27.30;15.73;;;;;;;16.11;100.00;100391.66;7390290;19;20410;-60
2022/09/14 10:15:16;;;;;;;14.67;7.27;;;;;;;16.15;100.00;100381.28;7394144;19;20422;-59
2022/09/14 10:18:06;;;;;;;25.40;12.60;;;;;;;16.15;100.00;100377.84;7390983;19;20456;-58
2022/09/14 10:20:36;;;;;;;21.73;9.33;;;;;;;16.14;100.00;100386.47;7395441;19;20394;-59
2022/09/14 10:23:24;;;;;;;10.43;4.10;;;;;;;16.10;100.00;100379.50;7390407;19;20522;-59
2022/09/14 10:25:55;;;;;;;16.73;7.80;;;;;;;15.97;100.00;100392.34;7394799;19;20960;-58
2022/09/14 10:28:27;;;;;;;22.17;9.70;;;;;;;16.03;100.00;100375.94;7393911;19;21055;-56
2022/09/14 10:31:00;;;;;;;12.20;2.50;;;;;;;16.10;100.00;100374.28;7392897;19;20374;-61
2022/09/14 10:33:33;;;;;;;11.73;3.10;;;;;;;15.83;100.00;100378.25;7389317;19;20485;-60
2022/09/14 10:36:10;;;;;;;12.40;2.87;;;;;;;15.68;100.00;100371.94;7394852;19;20391;-57
2022/09/14 10:38:41;;;;;;;39.23;13.77;;;;;;;15.72;100.00;100363.34;7394046;19;20935;-60
2022/09/14 10:41:25;;;;;;;8.07;2.00;;;;;;;15.69;100.00;100368.50;7390027;19;20391;-56
2022/09/14 10:44:24;;;;;;;16.13;4.40;;;;;;;15.69;100.00;100354.63;7393654;19;20424;-54
2022/09/14 10:47:08;;;;;;;22.23;7.00;;;;;;;15.72;100.00;100359.88;7390722;19;20452;-57
2022/09/14 10:49:51;;;;;;;9.20;2.00;;;;;;;15.76;100.00;100365.16;7393624;19;20760;-60
2022/09/14 10:52:25;;;;;;;19.97;6.30;;;;;;;15.95;100.00;100356.75;7388638;19;20448;-59
2022/09/14 10:55:30;;;;;;;11.23;2.33;;;;;;;16.03;100.00;100357.72;7396561;19;20444;-54
2022/09/14 10:58:07;;;;;;;55.43;14.80;;;;;;;16.23;100.00;100344.97;7389302;19;20448;-55
2022/09/14 11:00:53;;;;;;;12.70;2.40;;;;;;;16.52;100.00;100353.97;7397636;19;20408;-53
2022/09/14 11:03:32;;;;;;;10.93;3.20;;;;;;;16.67;100.00;100355.84;7388765;19;20413;-61
2022/09/14 11:06:12;;;;;;;6.97;3.00;;;;;;;16.98;100.00;100361.38;7395155;19;20382;-58
2022/09/14 11:08:46;;;;;;;10.83;2.50;;;;;;;17.14;100.00;100384.09;7392746;19;20770;-58
2022/09/14 11:11:28;;;;;;;13.20;3.23;;;;;;;17.58;100.00;100394.88;7385996;19;20377;-50
2022/09/14 11:14:07;;;;;;;11.57;3.20;;;;;;;17.72;100.00;100402.81;7392259;19;20415;-58
2022/09/14 11:16:54;;;;;;;13.87;3.50;;;;;;;17.64;100.00;100418.41;7389391;19;20960;-55
2022/09/14 11:19:35;;;;;;;5.70;1.33;;;;;;;17.63;100.00;100434.91;7393301;19;20381;-61
2022/09/14 11:22:12;;;;;;;11.03;2.67;;;;;;;17.65;100.00;100464.47;7388364;19;20421;-59
2022/09/14 11:24:44;;;;;;;13.80;2.60;;;;;;;17.55;100.00;100468.75;7391309;19;20935;-58
2022/09/14 11:27:18;;;;;;;9.80;2.57;;;;;;;17.71;100.00;100478.44;7388833;19;20422;-53
2022/09/14 11:29:50;;;;;;;13.47;2.73;;;;;;;17.65;100.00;100495.78;7392473;19;20412;-58
2022/09/14 11:32:23;;;;;;;6.10;1.77;;;;;;;17.72;100.00;100495.84;7390373;19;20428;-61
2022/09/14 11:34:56;;;;;;;6.63;1.70;;;;;;;17.90;100.00;100501.19;7390966;19;20939;-53